sensor_id;sensor_type;location;lat;lon;timestamp;P1;durP1;ratioP1;P2;durP2;ratioP2
29550;SDS011;16488;52.396;10.696;2024-02-26T00:01:25;9.50;;;3.72;;
29550;SDS011;16488;52.396;10.696;2024-02-26T00:03:51;3.97;;;2.88;;
29550;SDS011;16488;52.396;10.696;2024-02-26T00:06:17;4.18;;;2.70;;
29550;SDS011;16488;52.396;10.696;2024-02-26T00:08:43;4.28;;;2.88;;
29550;SDS011;16488;52.396;10.696;2024-02-26T00:11:09;8.15;;;3.92;;
29550;SDS011;16488;52.396;10.696;2024-02-26T00:13:35;5.55;;;3.47;;
29550;SDS011;16488;52.396;10.696;2024-02-26T00:16:01;7.88;;;3.50;;
29550;SDS011;16488;52.396;10.696;2024-02-26T00:18:28;9.27;;;4.03;;
29550;SDS011;16488;52.396;10.696;2024-02-26T00:20:54;5.00;;;3.80;;
29550;SDS011;16488;52.396;10.696;2024-02-26T00:23:19;9.05;;;4.63;;
29550;SDS011;16488;52.396;10.696;2024-02-26T00:25:45;5.72;;;3.85;;
29550;SDS011;16488;52.396;10.696;2024-02-26T00:28:10;5.13;;;3.63;;
29550;SDS011;16488;52.396;10.696;2024-02-26T00:30:38;7.35;;;3.80;;
29550;SDS011;16488;52.396;10.696;2024-02-26T00:33:04;8.68;;;3.33;;
29550;SDS011;16488;52.396;10.696;2024-02-26T00:35:29;5.95;;;3.78;;
29550;SDS011;16488;52.396;10.696;2024-02-26T00:37:55;9.43;;;3.90;;
29550;SDS011;16488;52.396;10.696;2024-02-26T00:40:20;6.10;;;4.47;;
29550;SDS011;16488;52.396;10.696;2024-02-26T00:42:46;5.32;;;3.55;;
29550;SDS011;16488;52.396;10.696;2024-02-26T00:47:38;6.25;;;3.08;;
29550;SDS011;16488;52.396;10.696;2024-02-26T00:50:06;7.32;;;4.15;;
29550;SDS011;16488;52.396;10.696;2024-02-26T00:52:33;5.30;;;3.25;;
29550;SDS011;16488;52.396;10.696;2024-02-26T00:57:24;7.82;;;3.92;;
29550;SDS011;16488;52.396;10.696;2024-02-26T00:59:50;3.15;;;2.80;;
29550;SDS011;16488;52.396;10.696;2024-02-26T01:02:16;8.10;;;3.80;;
29550;SDS011;16488;52.396;10.696;2024-02-26T01:04:41;3.70;;;2.72;;
29550;SDS011;16488;52.396;10.696;2024-02-26T01:07:07;4.30;;;3.28;;
29550;SDS011;16488;52.396;10.696;2024-02-26T01:09:33;5.45;;;3.28;;
29550;SDS011;16488;52.396;10.696;2024-02-26T01:11:59;8.52;;;4.15;;
29550;SDS011;16488;52.396;10.696;2024-02-26T01:14:25;5.25;;;3.42;;
29550;SDS011;16488;52.396;10.696;2024-02-26T01:16:50;6.60;;;3.92;;
29550;SDS011;16488;52.396;10.696;2024-02-26T01:19:16;8.50;;;3.22;;
29550;SDS011;16488;52.396;10.696;2024-02-26T01:21:41;6.45;;;3.92;;
29550;SDS011;16488;52.396;10.696;2024-02-26T01:24:07;4.97;;;3.60;;
29550;SDS011;16488;52.396;10.696;2024-02-26T01:26:32;4.20;;;3.40;;
29550;SDS011;16488;52.396;10.696;2024-02-26T01:28:58;6.53;;;3.60;;
29550;SDS011;16488;52.396;10.696;2024-02-26T01:31:24;7.78;;;3.67;;
29550;SDS011;16488;52.396;10.696;2024-02-26T01:33:49;9.25;;;4.10;;
29550;SDS011;16488;52.396;10.696;2024-02-26T01:36:15;9.25;;;4.32;;
29550;SDS011;16488;52.396;10.696;2024-02-26T01:38:40;8.13;;;4.18;;
29550;SDS011;16488;52.396;10.696;2024-02-26T01:41:06;6.07;;;3.72;;
29550;SDS011;16488;52.396;10.696;2024-02-26T01:43:31;6.97;;;4.32;;
29550;SDS011;16488;52.396;10.696;2024-02-26T01:45:57;4.80;;;3.33;;
29550;SDS011;16488;52.396;10.696;2024-02-26T01:48:23;9.90;;;4.57;;
29550;SDS011;16488;52.396;10.696;2024-02-26T01:50:49;8.85;;;3.72;;
29550;SDS011;16488;52.396;10.696;2024-02-26T01:53:15;8.95;;;4.20;;
29550;SDS011;16488;52.396;10.696;2024-02-26T01:55:42;6.10;;;3.97;;
29550;SDS011;16488;52.396;10.696;2024-02-26T01:58:07;6.55;;;4.00;;
29550;SDS011;16488;52.396;10.696;2024-02-26T02:00:34;9.63;;;4.35;;
29550;SDS011;16488;52.396;10.696;2024-02-26T02:03:00;5.95;;;3.80;;
29550;SDS011;16488;52.396;10.696;2024-02-26T02:05:27;6.78;;;4.07;;
29550;SDS011;16488;52.396;10.696;2024-02-26T02:07:53;7.20;;;3.80;;
29550;SDS011;16488;52.396;10.696;2024-02-26T02:10:19;7.30;;;4.45;;
29550;SDS011;16488;52.396;10.696;2024-02-26T02:12:48;9.05;;;3.83;;
29550;SDS011;16488;52.396;10.696;2024-02-26T02:17:39;6.93;;;3.55;;
29550;SDS011;16488;52.396;10.696;2024-02-26T02:20:08;6.22;;;3.92;;
29550;SDS011;16488;52.396;10.696;2024-02-26T02:22:41;7.32;;;4.18;;
29550;SDS011;16488;52.396;10.696;2024-02-26T02:25:07;5.57;;;3.42;;
29550;SDS011;16488;52.396;10.696;2024-02-26T02:27:32;10.20;;;3.95;;
29550;SDS011;16488;52.396;10.696;2024-02-26T02:29:58;8.73;;;4.60;;
29550;SDS011;16488;52.396;10.696;2024-02-26T02:32:24;7.43;;;4.53;;
29550;SDS011;16488;52.396;10.696;2024-02-26T02:34:51;10.52;;;4.15;;
29550;SDS011;16488;52.396;10.696;2024-02-26T02:37:17;12.27;;;4.10;;
29550;SDS011;16488;52.396;10.696;2024-02-26T02:39:43;8.13;;;5.22;;
29550;SDS011;16488;52.396;10.696;2024-02-26T02:42:09;8.05;;;3.70;;
29550;SDS011;16488;52.396;10.696;2024-02-26T02:47:01;8.88;;;4.38;;
29550;SDS011;16488;52.396;10.696;2024-02-26T02:49:26;9.80;;;4.40;;
29550;SDS011;16488;52.396;10.696;2024-02-26T02:51:52;5.22;;;3.67;;
29550;SDS011;16488;52.396;10.696;2024-02-26T02:54:19;5.28;;;3.83;;
29550;SDS011;16488;52.396;10.696;2024-02-26T02:56:45;6.47;;;3.67;;
29550;SDS011;16488;52.396;10.696;2024-02-26T02:59:10;6.65;;;4.20;;
29550;SDS011;16488;52.396;10.696;2024-02-26T03:01:36;5.22;;;4.28;;
29550;SDS011;16488;52.396;10.696;2024-02-26T03:04:01;6.65;;;4.05;;
29550;SDS011;16488;52.396;10.696;2024-02-26T03:06:27;6.10;;;4.60;;
29550;SDS011;16488;52.396;10.696;2024-02-26T03:11:19;5.90;;;4.40;;
29550;SDS011;16488;52.396;10.696;2024-02-26T03:13:45;6.45;;;3.75;;
29550;SDS011;16488;52.396;10.696;2024-02-26T03:16:11;5.47;;;3.70;;
29550;SDS011;16488;52.396;10.696;2024-02-26T03:18:39;5.32;;;3.35;;
29550;SDS011;16488;52.396;10.696;2024-02-26T03:21:05;6.28;;;3.78;;
29550;SDS011;16488;52.396;10.696;2024-02-26T03:26:01;6.93;;;4.30;;
29550;SDS011;16488;52.396;10.696;2024-02-26T03:28:29;7.13;;;3.80;;
29550;SDS011;16488;52.396;10.696;2024-02-26T03:30:56;5.43;;;3.95;;
29550;SDS011;16488;52.396;10.696;2024-02-26T03:33:22;9.60;;;4.70;;
29550;SDS011;16488;52.396;10.696;2024-02-26T03:35:47;13.88;;;4.13;;
29550;SDS011;16488;52.396;10.696;2024-02-26T03:38:13;7.50;;;4.13;;
29550;SDS011;16488;52.396;10.696;2024-02-26T03:40:38;6.97;;;4.20;;
29550;SDS011;16488;52.396;10.696;2024-02-26T03:43:04;5.40;;;3.83;;
29550;SDS011;16488;52.396;10.696;2024-02-26T03:45:32;7.63;;;4.53;;
29550;SDS011;16488;52.396;10.696;2024-02-26T03:47:58;7.90;;;4.47;;
29550;SDS011;16488;52.396;10.696;2024-02-26T03:50:23;6.30;;;4.70;;
29550;SDS011;16488;52.396;10.696;2024-02-26T03:52:49;9.15;;;4.75;;
29550;SDS011;16488;52.396;10.696;2024-02-26T03:55:15;5.55;;;4.13;;
29550;SDS011;16488;52.396;10.696;2024-02-26T03:57:40;11.15;;;4.80;;
29550;SDS011;16488;52.396;10.696;2024-02-26T04:00:06;13.05;;;4.45;;
29550;SDS011;16488;52.396;10.696;2024-02-26T04:02:32;6.88;;;4.55;;
29550;SDS011;16488;52.396;10.696;2024-02-26T04:04:58;7.60;;;4.85;;
29550;SDS011;16488;52.396;10.696;2024-02-26T04:07:24;5.88;;;4.07;;
29550;SDS011;16488;52.396;10.696;2024-02-26T04:09:50;9.30;;;5.13;;
29550;SDS011;16488;52.396;10.696;2024-02-26T04:12:15;5.47;;;4.00;;
29550;SDS011;16488;52.396;10.696;2024-02-26T04:14:41;7.55;;;4.22;;
29550;SDS011;16488;52.396;10.696;2024-02-26T04:17:06;8.77;;;4.80;;
29550;SDS011;16488;52.396;10.696;2024-02-26T04:19:32;8.75;;;4.47;;
29550;SDS011;16488;52.396;10.696;2024-02-26T04:21:57;8.63;;;4.90;;
29550;SDS011;16488;52.396;10.696;2024-02-26T04:24:24;6.40;;;4.40;;
29550;SDS011;16488;52.396;10.696;2024-02-26T04:26:49;7.22;;;4.57;;
29550;SDS011;16488;52.396;10.696;2024-02-26T04:29:15;6.15;;;4.43;;
29550;SDS011;16488;52.396;10.696;2024-02-26T04:31:40;11.63;;;5.30;;
29550;SDS011;16488;52.396;10.696;2024-02-26T04:34:07;8.65;;;4.80;;
29550;SDS011;16488;52.396;10.696;2024-02-26T04:36:33;6.10;;;4.65;;
29550;SDS011;16488;52.396;10.696;2024-02-26T04:38:59;8.10;;;5.57;;
29550;SDS011;16488;52.396;10.696;2024-02-26T04:41:24;13.82;;;6.25;;
29550;SDS011;16488;52.396;10.696;2024-02-26T04:43:50;10.63;;;6.20;;
29550;SDS011;16488;52.396;10.696;2024-02-26T04:46:15;8.05;;;5.95;;
29550;SDS011;16488;52.396;10.696;2024-02-26T04:48:41;9.55;;;6.40;;
29550;SDS011;16488;52.396;10.696;2024-02-26T04:51:07;11.52;;;7.38;;
29550;SDS011;16488;52.396;10.696;2024-02-26T04:53:32;10.25;;;7.35;;
29550;SDS011;16488;52.396;10.696;2024-02-26T04:55:58;11.25;;;8.60;;
29550;SDS011;16488;52.396;10.696;2024-02-26T04:58:23;14.20;;;8.90;;
29550;SDS011;16488;52.396;10.696;2024-02-26T05:00:49;15.85;;;9.50;;
29550;SDS011;16488;52.396;10.696;2024-02-26T05:03:15;13.82;;;8.98;;
29550;SDS011;16488;52.396;10.696;2024-02-26T05:05:41;15.90;;;9.48;;
29550;SDS011;16488;52.396;10.696;2024-02-26T05:08:10;15.82;;;8.52;;
29550;SDS011;16488;52.396;10.696;2024-02-26T05:10:37;13.25;;;9.15;;
29550;SDS011;16488;52.396;10.696;2024-02-26T05:13:06;13.95;;;9.27;;
29550;SDS011;16488;52.396;10.696;2024-02-26T05:17:57;13.88;;;9.20;;
29550;SDS011;16488;52.396;10.696;2024-02-26T05:20:23;13.70;;;8.70;;
29550;SDS011;16488;52.396;10.696;2024-02-26T05:22:48;13.32;;;9.85;;
29550;SDS011;16488;52.396;10.696;2024-02-26T05:27:40;14.93;;;8.98;;
29550;SDS011;16488;52.396;10.696;2024-02-26T05:30:07;15.25;;;10.07;;
29550;SDS011;16488;52.396;10.696;2024-02-26T05:32:32;13.65;;;8.60;;
29550;SDS011;16488;52.396;10.696;2024-02-26T05:34:58;17.60;;;8.90;;
29550;SDS011;16488;52.396;10.696;2024-02-26T05:37:23;15.20;;;8.98;;
29550;SDS011;16488;52.396;10.696;2024-02-26T05:39:49;15.05;;;8.82;;
29550;SDS011;16488;52.396;10.696;2024-02-26T05:42:15;14.82;;;9.15;;
29550;SDS011;16488;52.396;10.696;2024-02-26T05:44:40;11.85;;;8.20;;
29550;SDS011;16488;52.396;10.696;2024-02-26T05:47:06;13.93;;;8.68;;
29550;SDS011;16488;52.396;10.696;2024-02-26T05:49:31;15.98;;;9.27;;
29550;SDS011;16488;52.396;10.696;2024-02-26T05:51:58;16.88;;;9.63;;
29550;SDS011;16488;52.396;10.696;2024-02-26T05:54:24;11.35;;;8.20;;
29550;SDS011;16488;52.396;10.696;2024-02-26T05:56:49;12.57;;;9.10;;
29550;SDS011;16488;52.396;10.696;2024-02-26T05:59:15;13.18;;;8.52;;
29550;SDS011;16488;52.396;10.696;2024-02-26T06:01:41;14.65;;;9.23;;
29550;SDS011;16488;52.396;10.696;2024-02-26T06:04:07;12.55;;;8.45;;
29550;SDS011;16488;52.396;10.696;2024-02-26T06:06:32;12.85;;;9.18;;
29550;SDS011;16488;52.396;10.696;2024-02-26T06:08:58;12.63;;;8.52;;
29550;SDS011;16488;52.396;10.696;2024-02-26T06:11:23;15.30;;;8.68;;
29550;SDS011;16488;52.396;10.696;2024-02-26T06:13:49;13.93;;;8.20;;
29550;SDS011;16488;52.396;10.696;2024-02-26T06:16:14;16.27;;;7.68;;
29550;SDS011;16488;52.396;10.696;2024-02-26T06:18:40;11.05;;;7.53;;
29550;SDS011;16488;52.396;10.696;2024-02-26T06:21:09;17.58;;;7.45;;
29550;SDS011;16488;52.396;10.696;2024-02-26T06:23:35;15.75;;;7.30;;
29550;SDS011;16488;52.396;10.696;2024-02-26T06:26:01;12.45;;;6.70;;
29550;SDS011;16488;52.396;10.696;2024-02-26T06:28:27;10.18;;;6.72;;
29550;SDS011;16488;52.396;10.696;2024-02-26T06:30:55;11.75;;;8.00;;
29550;SDS011;16488;52.396;10.696;2024-02-26T06:33:21;12.52;;;7.93;;
29550;SDS011;16488;52.396;10.696;2024-02-26T06:35:47;12.95;;;7.68;;
29550;SDS011;16488;52.396;10.696;2024-02-26T06:38:12;9.23;;;6.57;;
29550;SDS011;16488;52.396;10.696;2024-02-26T06:43:04;10.25;;;6.38;;
29550;SDS011;16488;52.396;10.696;2024-02-26T06:45:31;9.43;;;6.63;;
29550;SDS011;16488;52.396;10.696;2024-02-26T06:47:56;13.63;;;7.32;;
29550;SDS011;16488;52.396;10.696;2024-02-26T06:50:22;10.75;;;7.00;;
29550;SDS011;16488;52.396;10.696;2024-02-26T06:52:47;9.27;;;6.57;;
29550;SDS011;16488;52.396;10.696;2024-02-26T06:55:13;9.52;;;6.30;;
29550;SDS011;16488;52.396;10.696;2024-02-26T06:57:39;10.88;;;6.47;;
29550;SDS011;16488;52.396;10.696;2024-02-26T07:00:05;9.55;;;6.43;;
29550;SDS011;16488;52.396;10.696;2024-02-26T07:04:56;11.15;;;5.72;;
29550;SDS011;16488;52.396;10.696;2024-02-26T07:07:23;11.63;;;6.22;;
29550;SDS011;16488;52.396;10.696;2024-02-26T07:09:49;12.23;;;5.93;;
29550;SDS011;16488;52.396;10.696;2024-02-26T07:12:15;13.45;;;5.90;;
29550;SDS011;16488;52.396;10.696;2024-02-26T07:14:46;14.25;;;7.15;;
29550;SDS011;16488;52.396;10.696;2024-02-26T07:17:12;10.02;;;6.65;;
29550;SDS011;16488;52.396;10.696;2024-02-26T07:19:37;9.95;;;6.40;;
29550;SDS011;16488;52.396;10.696;2024-02-26T07:22:03;14.43;;;7.95;;
29550;SDS011;16488;52.396;10.696;2024-02-26T07:24:29;15.48;;;9.05;;
29550;SDS011;16488;52.396;10.696;2024-02-26T07:26:54;11.50;;;6.28;;
29550;SDS011;16488;52.396;10.696;2024-02-26T07:29:20;11.77;;;6.53;;
29550;SDS011;16488;52.396;10.696;2024-02-26T07:34:12;10.52;;;6.32;;
29550;SDS011;16488;52.396;10.696;2024-02-26T07:36:38;17.58;;;6.25;;
29550;SDS011;16488;52.396;10.696;2024-02-26T07:39:03;9.25;;;6.45;;
29550;SDS011;16488;52.396;10.696;2024-02-26T07:43:55;8.73;;;6.30;;
29550;SDS011;16488;52.396;10.696;2024-02-26T07:46:21;8.40;;;6.22;;
29550;SDS011;16488;52.396;10.696;2024-02-26T07:48:46;11.68;;;6.55;;
29550;SDS011;16488;52.396;10.696;2024-02-26T07:51:12;6.78;;;5.30;;
29550;SDS011;16488;52.396;10.696;2024-02-26T07:53:42;10.23;;;5.72;;
29550;SDS011;16488;52.396;10.696;2024-02-26T07:56:08;9.20;;;5.15;;
29550;SDS011;16488;52.396;10.696;2024-02-26T07:58:34;9.18;;;5.30;;
29550;SDS011;16488;52.396;10.696;2024-02-26T08:00:59;8.00;;;5.45;;
29550;SDS011;16488;52.396;10.696;2024-02-26T08:03:25;10.05;;;6.25;;
29550;SDS011;16488;52.396;10.696;2024-02-26T08:05:51;9.45;;;5.97;;
29550;SDS011;16488;52.396;10.696;2024-02-26T08:08:16;8.88;;;6.25;;
29550;SDS011;16488;52.396;10.696;2024-02-26T08:10:42;8.07;;;5.30;;
29550;SDS011;16488;52.396;10.696;2024-02-26T08:13:08;7.75;;;5.40;;
29550;SDS011;16488;52.396;10.696;2024-02-26T08:15:34;10.32;;;6.32;;
29550;SDS011;16488;52.396;10.696;2024-02-26T08:18:02;9.18;;;5.82;;
29550;SDS011;16488;52.396;10.696;2024-02-26T08:22:54;9.13;;;5.15;;
29550;SDS011;16488;52.396;10.696;2024-02-26T08:25:20;8.63;;;5.90;;
29550;SDS011;16488;52.396;10.696;2024-02-26T08:27:45;9.48;;;5.97;;
29550;SDS011;16488;52.396;10.696;2024-02-26T08:30:12;6.43;;;5.05;;
29550;SDS011;16488;52.396;10.696;2024-02-26T08:32:48;8.02;;;5.43;;
29550;SDS011;16488;52.396;10.696;2024-02-26T08:35:14;7.70;;;4.57;;
29550;SDS011;16488;52.396;10.696;2024-02-26T08:37:40;5.85;;;4.75;;
29550;SDS011;16488;52.396;10.696;2024-02-26T08:40:08;8.60;;;5.70;;
29550;SDS011;16488;52.396;10.696;2024-02-26T08:42:34;8.00;;;5.15;;
29550;SDS011;16488;52.396;10.696;2024-02-26T08:45:00;11.25;;;5.38;;
29550;SDS011;16488;52.396;10.696;2024-02-26T08:47:27;7.78;;;5.25;;
29550;SDS011;16488;52.396;10.696;2024-02-26T08:49:53;13.57;;;5.72;;
29550;SDS011;16488;52.396;10.696;2024-02-26T08:52:19;16.17;;;5.70;;
29550;SDS011;16488;52.396;10.696;2024-02-26T08:54:44;12.13;;;5.90;;
29550;SDS011;16488;52.396;10.696;2024-02-26T08:57:10;10.40;;;5.35;;
29550;SDS011;16488;52.396;10.696;2024-02-26T08:59:36;10.32;;;5.95;;
29550;SDS011;16488;52.396;10.696;2024-02-26T09:02:01;7.43;;;4.80;;
29550;SDS011;16488;52.396;10.696;2024-02-26T09:04:27;7.90;;;4.70;;
29550;SDS011;16488;52.396;10.696;2024-02-26T09:06:53;9.43;;;4.72;;
29550;SDS011;16488;52.396;10.696;2024-02-26T09:09:19;8.13;;;5.20;;
29550;SDS011;16488;52.396;10.696;2024-02-26T09:11:45;11.27;;;5.38;;
29550;SDS011;16488;52.396;10.696;2024-02-26T09:14:11;10.75;;;4.70;;
29550;SDS011;16488;52.396;10.696;2024-02-26T09:19:02;8.63;;;5.43;;
29550;SDS011;16488;52.396;10.696;2024-02-26T09:21:28;7.43;;;4.65;;
29550;SDS011;16488;52.396;10.696;2024-02-26T09:23:53;6.22;;;4.18;;
29550;SDS011;16488;52.396;10.696;2024-02-26T09:26:19;10.32;;;4.57;;
29550;SDS011;16488;52.396;10.696;2024-02-26T09:28:45;9.45;;;5.03;;
29550;SDS011;16488;52.396;10.696;2024-02-26T09:31:11;7.97;;;4.80;;
29550;SDS011;16488;52.396;10.696;2024-02-26T09:33:36;7.38;;;5.13;;
29550;SDS011;16488;52.396;10.696;2024-02-26T09:36:04;8.20;;;5.03;;
29550;SDS011;16488;52.396;10.696;2024-02-26T09:38:31;11.27;;;5.78;;
29550;SDS011;16488;52.396;10.696;2024-02-26T09:41:01;9.88;;;4.90;;
29550;SDS011;16488;52.396;10.696;2024-02-26T09:43:27;8.35;;;4.82;;
29550;SDS011;16488;52.396;10.696;2024-02-26T09:46:01;9.10;;;5.00;;
29550;SDS011;16488;52.396;10.696;2024-02-26T09:50:53;10.55;;;5.57;;
29550;SDS011;16488;52.396;10.696;2024-02-26T09:53:19;9.00;;;4.78;;
29550;SDS011;16488;52.396;10.696;2024-02-26T09:55:47;10.23;;;4.93;;
29550;SDS011;16488;52.396;10.696;2024-02-26T09:58:13;10.02;;;4.70;;
29550;SDS011;16488;52.396;10.696;2024-02-26T10:00:43;11.80;;;4.65;;
29550;SDS011;16488;52.396;10.696;2024-02-26T10:03:15;8.52;;;5.15;;
29550;SDS011;16488;52.396;10.696;2024-02-26T10:05:43;10.73;;;5.90;;
29550;SDS011;16488;52.396;10.696;2024-02-26T10:10:36;9.30;;;5.55;;
29550;SDS011;16488;52.396;10.696;2024-02-26T10:15:31;9.05;;;5.97;;
29550;SDS011;16488;52.396;10.696;2024-02-26T10:17:57;10.68;;;5.63;;
29550;SDS011;16488;52.396;10.696;2024-02-26T10:20:23;11.23;;;5.35;;
29550;SDS011;16488;52.396;10.696;2024-02-26T10:22:49;7.88;;;4.72;;
29550;SDS011;16488;52.396;10.696;2024-02-26T10:25:16;7.57;;;4.68;;
29550;SDS011;16488;52.396;10.696;2024-02-26T10:27:43;9.13;;;5.10;;
29550;SDS011;16488;52.396;10.696;2024-02-26T10:30:18;11.80;;;5.82;;
29550;SDS011;16488;52.396;10.696;2024-02-26T10:32:46;10.35;;;5.68;;
29550;SDS011;16488;52.396;10.696;2024-02-26T10:35:12;12.18;;;6.50;;
29550;SDS011;16488;52.396;10.696;2024-02-26T10:37:41;10.80;;;6.20;;
29550;SDS011;16488;52.396;10.696;2024-02-26T10:40:13;9.85;;;6.43;;
29550;SDS011;16488;52.396;10.696;2024-02-26T10:42:40;12.95;;;6.88;;
29550;SDS011;16488;52.396;10.696;2024-02-26T10:45:07;10.55;;;6.40;;
29550;SDS011;16488;52.396;10.696;2024-02-26T10:47:34;8.68;;;5.20;;
29550;SDS011;16488;52.396;10.696;2024-02-26T10:50:04;9.32;;;6.18;;
29550;SDS011;16488;52.396;10.696;2024-02-26T10:52:33;10.55;;;6.80;;
29550;SDS011;16488;52.396;10.696;2024-02-26T10:55:04;16.73;;;5.82;;
29550;SDS011;16488;52.396;10.696;2024-02-26T10:57:33;12.40;;;7.00;;
29550;SDS011;16488;52.396;10.696;2024-02-26T10:59:59;11.10;;;6.82;;
29550;SDS011;16488;52.396;10.696;2024-02-26T11:02:29;11.07;;;6.40;;
29550;SDS011;16488;52.396;10.696;2024-02-26T11:04:58;13.80;;;6.97;;
29550;SDS011;16488;52.396;10.696;2024-02-26T11:07:25;12.55;;;6.63;;
29550;SDS011;16488;52.396;10.696;2024-02-26T11:09:53;15.35;;;7.13;;
29550;SDS011;16488;52.396;10.696;2024-02-26T11:12:19;15.77;;;7.30;;
29550;SDS011;16488;52.396;10.696;2024-02-26T11:14:47;11.35;;;6.28;;
29550;SDS011;16488;52.396;10.696;2024-02-26T11:17:16;14.95;;;7.28;;
29550;SDS011;16488;52.396;10.696;2024-02-26T11:19:44;15.65;;;6.55;;
29550;SDS011;16488;52.396;10.696;2024-02-26T11:22:11;10.25;;;7.18;;
29550;SDS011;16488;52.396;10.696;2024-02-26T11:24:36;13.88;;;6.97;;
29550;SDS011;16488;52.396;10.696;2024-02-26T11:27:06;9.25;;;6.40;;
29550;SDS011;16488;52.396;10.696;2024-02-26T11:29:38;12.43;;;7.53;;
29550;SDS011;16488;52.396;10.696;2024-02-26T11:32:09;12.25;;;7.07;;
29550;SDS011;16488;52.396;10.696;2024-02-26T11:34:35;13.32;;;6.60;;
29550;SDS011;16488;52.396;10.696;2024-02-26T11:37:14;13.00;;;8.43;;
29550;SDS011;16488;52.396;10.696;2024-02-26T11:39:41;14.27;;;8.70;;
29550;SDS011;16488;52.396;10.696;2024-02-26T11:42:07;15.27;;;8.00;;
29550;SDS011;16488;52.396;10.696;2024-02-26T11:44:34;15.95;;;7.88;;
29550;SDS011;16488;52.396;10.696;2024-02-26T11:47:10;18.50;;;9.63;;
29550;SDS011;16488;52.396;10.696;2024-02-26T11:49:37;17.40;;;8.38;;
29550;SDS011;16488;52.396;10.696;2024-02-26T11:52:04;12.40;;;6.93;;
29550;SDS011;16488;52.396;10.696;2024-02-26T11:54:39;9.93;;;7.28;;
29550;SDS011;16488;52.396;10.696;2024-02-26T12:00:17;12.07;;;7.45;;
29550;SDS011;16488;52.396;10.696;2024-02-26T12:02:47;12.82;;;7.55;;
29550;SDS011;16488;52.396;10.696;2024-02-26T12:05:18;12.30;;;6.85;;
29550;SDS011;16488;52.396;10.696;2024-02-26T12:07:46;12.73;;;8.05;;
29550;SDS011;16488;52.396;10.696;2024-02-26T12:10:22;15.88;;;8.68;;
29550;SDS011;16488;52.396;10.696;2024-02-26T12:13:12;14.52;;;8.10;;
29550;SDS011;16488;52.396;10.696;2024-02-26T12:15:41;13.00;;;8.55;;
29550;SDS011;16488;52.396;10.696;2024-02-26T12:18:16;15.55;;;8.05;;
29550;SDS011;16488;52.396;10.696;2024-02-26T12:20:43;14.80;;;7.45;;
29550;SDS011;16488;52.396;10.696;2024-02-26T12:23:10;12.52;;;6.93;;
29550;SDS011;16488;52.396;10.696;2024-02-26T12:25:41;10.45;;;7.78;;
29550;SDS011;16488;52.396;10.696;2024-02-26T12:28:08;11.13;;;6.90;;
29550;SDS011;16488;52.396;10.696;2024-02-26T12:30:34;15.52;;;8.20;;
29550;SDS011;16488;52.396;10.696;2024-02-26T12:33:00;18.15;;;8.13;;
29550;SDS011;16488;52.396;10.696;2024-02-26T12:35:27;10.30;;;7.40;;
29550;SDS011;16488;52.396;10.696;2024-02-26T12:37:53;11.05;;;6.40;;
29550;SDS011;16488;52.396;10.696;2024-02-26T12:40:19;10.60;;;6.75;;
29550;SDS011;16488;52.396;10.696;2024-02-26T12:42:46;13.70;;;7.43;;
29550;SDS011;16488;52.396;10.696;2024-02-26T12:45:12;11.20;;;7.20;;
29550;SDS011;16488;52.396;10.696;2024-02-26T12:47:39;9.80;;;6.80;;
29550;SDS011;16488;52.396;10.696;2024-02-26T12:50:07;14.38;;;6.72;;
29550;SDS011;16488;52.396;10.696;2024-02-26T12:52:34;11.40;;;7.15;;
29550;SDS011;16488;52.396;10.696;2024-02-26T12:55:02;10.38;;;6.80;;
29550;SDS011;16488;52.396;10.696;2024-02-26T12:57:31;9.52;;;6.85;;
29550;SDS011;16488;52.396;10.696;2024-02-26T12:59:59;11.30;;;7.03;;
29550;SDS011;16488;52.396;10.696;2024-02-26T13:02:25;11.43;;;7.72;;
29550;SDS011;16488;52.396;10.696;2024-02-26T13:07:17;13.18;;;8.00;;
29550;SDS011;16488;52.396;10.696;2024-02-26T13:09:43;16.15;;;8.32;;
29550;SDS011;16488;52.396;10.696;2024-02-26T13:12:09;20.55;;;8.73;;
29550;SDS011;16488;52.396;10.696;2024-02-26T13:14:35;14.65;;;9.60;;
29550;SDS011;16488;52.396;10.696;2024-02-26T13:17:01;14.25;;;8.75;;
29550;SDS011;16488;52.396;10.696;2024-02-26T13:21:53;14.48;;;8.45;;
29550;SDS011;16488;52.396;10.696;2024-02-26T13:24:19;15.80;;;8.70;;
29550;SDS011;16488;52.396;10.696;2024-02-26T13:26:45;18.23;;;9.15;;
29550;SDS011;16488;52.396;10.696;2024-02-26T13:29:20;17.20;;;9.82;;
29550;SDS011;16488;52.396;10.696;2024-02-26T13:31:46;16.75;;;9.85;;
29550;SDS011;16488;52.396;10.696;2024-02-26T13:34:22;14.88;;;8.15;;
29550;SDS011;16488;52.396;10.696;2024-02-26T13:36:50;13.18;;;8.43;;
29550;SDS011;16488;52.396;10.696;2024-02-26T13:39:23;15.10;;;8.27;;
29550;SDS011;16488;52.396;10.696;2024-02-26T13:41:50;13.57;;;8.65;;
29550;SDS011;16488;52.396;10.696;2024-02-26T13:44:16;16.30;;;9.23;;
29550;SDS011;16488;52.396;10.696;2024-02-26T13:46:42;13.63;;;8.57;;
29550;SDS011;16488;52.396;10.696;2024-02-26T13:49:08;14.02;;;8.68;;
29550;SDS011;16488;52.396;10.696;2024-02-26T13:51:35;17.40;;;8.70;;
29550;SDS011;16488;52.396;10.696;2024-02-26T13:54:02;15.70;;;9.00;;
29550;SDS011;16488;52.396;10.696;2024-02-26T13:56:27;13.77;;;8.45;;
29550;SDS011;16488;52.396;10.696;2024-02-26T13:58:53;13.70;;;8.95;;
29550;SDS011;16488;52.396;10.696;2024-02-26T14:01:19;14.98;;;8.80;;
29550;SDS011;16488;52.396;10.696;2024-02-26T14:03:45;18.10;;;10.27;;
29550;SDS011;16488;52.396;10.696;2024-02-26T14:06:10;13.48;;;8.75;;
29550;SDS011;16488;52.396;10.696;2024-02-26T14:08:36;16.27;;;9.35;;
29550;SDS011;16488;52.396;10.696;2024-02-26T14:11:02;15.77;;;7.95;;
29550;SDS011;16488;52.396;10.696;2024-02-26T14:13:28;11.73;;;7.43;;
29550;SDS011;16488;52.396;10.696;2024-02-26T14:15:53;13.02;;;8.90;;
29550;SDS011;16488;52.396;10.696;2024-02-26T14:18:19;15.57;;;8.93;;
29550;SDS011;16488;52.396;10.696;2024-02-26T14:20:45;20.58;;;12.18;;
29550;SDS011;16488;52.396;10.696;2024-02-26T14:23:10;15.57;;;9.75;;
29550;SDS011;16488;52.396;10.696;2024-02-26T14:25:36;16.02;;;7.80;;
29550;SDS011;16488;52.396;10.696;2024-02-26T14:28:02;16.50;;;10.43;;
29550;SDS011;16488;52.396;10.696;2024-02-26T14:30:28;18.70;;;10.68;;
29550;SDS011;16488;52.396;10.696;2024-02-26T14:32:54;26.33;;;15.18;;
29550;SDS011;16488;52.396;10.696;2024-02-26T14:35:20;22.05;;;13.35;;
29550;SDS011;16488;52.396;10.696;2024-02-26T14:37:46;19.02;;;11.70;;
29550;SDS011;16488;52.396;10.696;2024-02-26T14:40:12;22.40;;;13.18;;
29550;SDS011;16488;52.396;10.696;2024-02-26T14:42:39;16.98;;;9.70;;
29550;SDS011;16488;52.396;10.696;2024-02-26T14:45:05;16.73;;;9.52;;
29550;SDS011;16488;52.396;10.696;2024-02-26T14:47:34;25.42;;;15.35;;
29550;SDS011;16488;52.396;10.696;2024-02-26T14:52:26;13.25;;;8.75;;
29550;SDS011;16488;52.396;10.696;2024-02-26T14:54:51;28.30;;;11.18;;
29550;SDS011;16488;52.396;10.696;2024-02-26T14:57:18;15.65;;;9.48;;
29550;SDS011;16488;52.396;10.696;2024-02-26T15:02:10;15.80;;;8.60;;
29550;SDS011;16488;52.396;10.696;2024-02-26T15:04:37;12.55;;;8.20;;
29550;SDS011;16488;52.396;10.696;2024-02-26T15:07:03;17.92;;;9.63;;
29550;SDS011;16488;52.396;10.696;2024-02-26T15:09:29;20.13;;;11.45;;
29550;SDS011;16488;52.396;10.696;2024-02-26T15:11:54;14.00;;;7.57;;
29550;SDS011;16488;52.396;10.696;2024-02-26T15:14:22;14.00;;;8.18;;
29550;SDS011;16488;52.396;10.696;2024-02-26T15:16:48;15.18;;;7.68;;